createdAt,value
2022-11-04T00:00:56.796Z,10.30
2022-11-04T00:05:50.147Z,10.18
2022-11-04T00:11:00.660Z,10.17
2022-11-04T00:16:11.308Z,10.18
2022-11-04T00:21:23.532Z,10.20
2022-11-04T00:26:34.067Z,10.22
2022-11-04T00:31:44.797Z,10.19
2022-11-04T00:36:39.428Z,10.26
2022-11-04T00:41:32.691Z,10.20
2022-11-04T00:46:26.558Z,10.17
2022-11-04T00:51:21.607Z,10.32
2022-11-04T00:56:16.846Z,10.25
2022-11-04T01:01:13.179Z,10.04
2022-11-04T01:06:07.156Z,10.06
2022-11-04T01:11:03.373Z,10.09
2022-11-04T01:15:59.473Z,10.12
2022-11-04T01:20:52.818Z,10.20
2022-11-04T01:25:46.174Z,9.93
2022-11-04T01:30:40.055Z,9.85
2022-11-04T01:35:34.781Z,9.90
2022-11-04T01:40:28.102Z,10.08
2022-11-04T01:45:23.664Z,10.05
2022-11-04T01:50:23.856Z,10.00
2022-11-04T01:55:24.712Z,9.76
2022-11-04T02:00:19.357Z,9.64
2022-11-04T02:05:12.574Z,9.64
2022-11-04T02:10:07.765Z,9.57
2022-11-04T02:15:02.724Z,9.62
2022-11-04T02:20:14.971Z,9.67
2022-11-04T02:25:46.169Z,9.77
2022-11-04T02:30:50.346Z,9.66
2022-11-04T02:35:55.467Z,9.71
2022-11-04T02:41:05.687Z,9.71
2022-11-04T02:46:07.909Z,9.62
2022-11-04T02:51:10.679Z,9.79
2022-11-04T02:56:07.888Z,9.64
2022-11-04T03:01:07.576Z,9.78
2022-11-04T03:06:04.387Z,9.70
2022-11-04T03:11:05.588Z,9.56
2022-11-04T03:16:09.165Z,9.38
2022-11-04T03:21:09.894Z,9.37
2022-11-04T03:26:16.123Z,9.42
2022-11-04T03:31:21.431Z,9.69
2022-11-04T03:36:15.541Z,9.67
2022-11-04T03:41:15.738Z,9.78
2022-11-04T03:46:10.850Z,9.71
2022-11-04T03:51:04.288Z,9.65
2022-11-04T03:56:49.817Z,9.72
2022-11-04T04:01:54.213Z,9.60
2022-11-04T04:06:53.379Z,9.60
2022-11-04T04:11:57.113Z,9.40
2022-11-04T04:16:55.535Z,9.47
2022-11-04T04:21:56.789Z,9.19
2022-11-04T04:27:09.353Z,9.14
2022-11-04T04:32:06.470Z,9.21
2022-11-04T04:37:06.476Z,9.20
2022-11-04T04:42:18.019Z,9.35
2022-11-04T04:47:20.121Z,9.43
2022-11-04T04:52:13.669Z,9.45
2022-11-04T04:57:06.949Z,9.33
2022-11-04T05:02:00.395Z,9.38
2022-11-04T05:06:55.244Z,9.24
2022-11-04T05:11:48.582Z,9.16
2022-11-04T05:16:41.869Z,9.14
2022-11-04T05:21:35.232Z,9.16
2022-11-04T05:26:29.890Z,9.17
2022-11-04T05:31:23.375Z,9.18
2022-11-04T05:36:18.341Z,9.16
2022-11-04T05:41:25.708Z,9.22
2022-11-04T05:46:20.582Z,9.22
2022-11-04T05:51:15.657Z,9.11
2022-11-04T05:56:09.509Z,9.19
2022-11-04T06:01:28.084Z,9.23
2022-11-04T06:06:22.148Z,9.20
2022-11-04T06:11:15.640Z,9.20
2022-11-04T06:16:09.470Z,9.13
2022-11-04T06:21:22.441Z,9.09
2022-11-04T06:26:18.308Z,9.01
2022-11-04T06:31:14.642Z,9.06
2022-11-04T06:36:13.290Z,9.03
2022-11-04T06:41:07.870Z,9.09
2022-11-04T06:46:03.586Z,9.09
2022-11-04T06:50:56.808Z,9.05
2022-11-04T06:55:52.574Z,8.96
2022-11-04T07:00:46.509Z,8.98
2022-11-04T07:05:39.949Z,8.95
2022-11-04T07:10:33.197Z,9.01
2022-11-04T07:15:27.851Z,9.17
2022-11-04T07:20:21.509Z,9.32
2022-11-04T07:25:14.785Z,9.36
2022-11-04T07:30:09.859Z,9.45
2022-11-04T07:35:04.873Z,9.36
2022-11-04T07:39:58.153Z,9.41
2022-11-04T07:44:53.921Z,9.43
2022-11-04T07:49:47.406Z,9.52
2022-11-04T07:54:42.198Z,9.61
2022-11-04T07:59:35.539Z,9.64
2022-11-04T08:04:29.133Z,9.63
2022-11-04T08:09:23.387Z,9.71
2022-11-04T08:14:18.120Z,9.79
2022-11-04T08:19:11.412Z,9.82
2022-11-04T08:24:06.062Z,9.88
2022-11-04T08:28:59.310Z,9.95
2022-11-04T08:33:57.672Z,9.95
2022-11-04T08:38:51.211Z,9.94
2022-11-04T08:43:44.708Z,10.04
2022-11-04T08:48:40.180Z,10.10
2022-11-04T08:53:36.132Z,10.20
2022-11-04T08:58:29.629Z,10.21
2022-11-04T09:03:22.972Z,10.16
2022-11-04T09:08:19.065Z,10.23
2022-11-04T09:13:15.642Z,10.36
2022-11-04T09:18:09.775Z,10.22
2022-11-04T09:23:03.066Z,10.32
2022-11-04T09:27:56.311Z,10.49
2022-11-04T09:32:52.895Z,10.61
2022-11-04T09:37:47.116Z,10.69
2022-11-04T09:42:58.571Z,10.69
2022-11-04T09:47:59.796Z,10.84
2022-11-04T09:53:01.227Z,10.93
2022-11-04T09:57:58.657Z,10.85
2022-11-04T10:03:11.327Z,11.01
2022-11-04T10:08:49.436Z,10.95
2022-11-04T10:14:02.944Z,11.07
2022-11-04T10:19:32.005Z,11.12
2022-11-04T10:24:44.195Z,11.19
2022-11-04T10:29:46.273Z,11.13
2022-11-04T10:34:56.381Z,11.20
2022-11-04T10:39:52.309Z,11.24
2022-11-04T10:44:55.583Z,11.27
2022-11-04T10:50:30.228Z,11.33
2022-11-04T10:55:42.217Z,11.42
2022-11-04T11:00:41.148Z,11.45
2022-11-04T11:05:35.967Z,11.43
2022-11-04T11:10:33.464Z,11.50
2022-11-04T11:15:35.169Z,11.65
2022-11-04T11:20:28.611Z,11.75
2022-11-04T11:25:28.253Z,11.74
2022-11-04T11:30:26.007Z,11.64
2022-11-04T11:35:23.054Z,11.30
2022-11-04T11:40:31.597Z,11.34
2022-11-04T11:45:30.989Z,11.17
2022-11-04T11:50:31.304Z,11.07
2022-11-04T11:55:33.808Z,11.21
2022-11-04T12:11:09.591Z,10.97
2022-11-04T12:16:30.271Z,11.01
2022-11-04T12:21:33.283Z,11.24
2022-11-04T12:26:40.500Z,11.30
2022-11-04T12:31:51.186Z,11.34
2022-11-04T12:37:07.353Z,11.37
2022-11-04T12:42:22.415Z,11.45
2022-11-04T12:47:34.314Z,11.44
2022-11-04T12:53:00.548Z,11.40
2022-11-04T12:58:08.206Z,11.32
2022-11-04T13:03:11.246Z,11.24
2022-11-04T13:08:17.729Z,11.19
2022-11-04T13:13:27.907Z,11.18
2022-11-04T13:18:55.547Z,11.15
2022-11-04T13:24:23.677Z,11.15
2022-11-04T13:29:26.024Z,11.19
2022-11-04T13:34:33.350Z,11.15
2022-11-04T13:39:34.133Z,11.14
2022-11-04T13:44:33.272Z,11.08
2022-11-04T13:49:32.567Z,11.08
2022-11-04T13:54:32.554Z,11.09
2022-11-04T13:59:34.495Z,11.06
2022-11-04T14:04:52.007Z,11.15
2022-11-04T14:09:57.216Z,11.19
2022-11-04T14:15:08.226Z,11.14
2022-11-04T14:20:11.555Z,11.07
2022-11-04T14:25:26.837Z,10.93
2022-11-04T14:30:49.313Z,10.90
2022-11-04T14:35:43.214Z,10.87
2022-11-04T14:41:16.096Z,10.85
2022-11-04T14:46:13.734Z,10.79
2022-11-04T14:51:07.179Z,10.90
2022-11-04T14:56:21.936Z,10.97
2022-11-04T15:01:19.016Z,11.04
2022-11-04T15:06:13.550Z,11.00
2022-11-04T15:11:17.468Z,11.12
2022-11-04T15:22:37.059Z,11.11
2022-11-04T15:27:41.060Z,11.07
2022-11-04T15:32:38.904Z,11.01
2022-11-04T15:37:33.199Z,10.77
2022-11-04T15:42:43.119Z,10.63
2022-11-04T15:47:37.939Z,10.55
2022-11-04T15:52:31.664Z,10.38
2022-11-04T15:57:32.366Z,10.21
2022-11-04T16:02:31.362Z,10.14
2022-11-04T16:07:26.082Z,10.10
2022-11-04T16:12:29.045Z,10.07
2022-11-04T16:17:24.012Z,10.06
2022-11-04T16:22:30.872Z,10.14
2022-11-04T16:27:25.973Z,10.02
2022-11-04T16:32:26.761Z,9.92
2022-11-04T16:37:20.092Z,9.94
2022-11-04T16:42:17.566Z,9.99
2022-11-04T16:47:12.163Z,9.96
2022-11-04T16:52:11.886Z,10.00
2022-11-04T16:57:06.894Z,10.02
2022-11-04T17:02:01.654Z,10.11
2022-11-04T17:06:55.109Z,9.87
2022-11-04T17:11:49.105Z,9.79
2022-11-04T17:16:42.397Z,9.94
2022-11-04T17:21:37.108Z,9.97
2022-11-04T17:26:30.324Z,10.06
2022-11-04T17:31:23.826Z,10.12
2022-11-04T17:36:20.241Z,10.12
2022-11-04T17:41:32.333Z,10.08
2022-11-04T17:46:38.993Z,10.17
2022-11-04T17:51:32.709Z,10.22
2022-11-04T17:56:27.584Z,10.23
2022-11-04T18:01:24.276Z,10.12
2022-11-04T18:06:17.674Z,10.09
2022-11-04T18:11:32.580Z,10.18
2022-11-04T18:16:27.402Z,10.07
2022-11-04T18:21:22.407Z,10.03
2022-11-04T18:26:16.005Z,9.88
2022-11-04T18:31:10.810Z,9.92
2022-11-04T18:36:07.576Z,9.93
2022-11-04T18:41:04.401Z,9.92
2022-11-04T18:45:57.970Z,9.90
2022-11-04T18:50:56.604Z,9.83
2022-11-04T18:55:51.840Z,9.85
2022-11-04T19:00:51.950Z,9.74
2022-11-04T19:05:55.703Z,9.64
2022-11-04T19:11:01.710Z,9.68
2022-11-04T19:16:08.098Z,9.76
2022-11-04T19:21:10.949Z,9.78
2022-11-04T19:26:15.028Z,9.80
2022-11-04T19:31:13.125Z,9.72
2022-11-04T19:36:13.660Z,9.71
2022-11-04T19:41:34.926Z,9.80
2022-11-04T19:46:31.189Z,9.67
2022-11-04T19:51:30.679Z,9.65
2022-11-04T19:56:27.718Z,9.64
2022-11-04T20:01:22.292Z,9.64
2022-11-04T20:06:21.495Z,9.53
2022-11-04T20:11:16.637Z,9.59
2022-11-04T20:16:19.532Z,9.74
2022-11-04T20:21:13.119Z,9.67
2022-11-04T20:26:17.592Z,9.67
2022-11-04T20:31:20.206Z,9.50
2022-11-04T20:36:15.676Z,9.56
2022-11-04T20:41:15.443Z,9.45
2022-11-04T20:46:13.242Z,9.31
2022-11-04T20:51:08.994Z,9.34
2022-11-04T20:56:06.364Z,9.34
2022-11-04T21:01:03.091Z,9.36
2022-11-04T21:05:56.839Z,9.55
2022-11-04T21:10:52.017Z,9.58
2022-11-04T21:15:46.351Z,9.45
2022-11-04T21:20:42.352Z,9.46
2022-11-04T21:25:41.768Z,9.40
2022-11-04T21:30:38.546Z,9.59
2022-11-04T21:35:34.852Z,9.55
2022-11-04T21:40:28.325Z,9.38
2022-11-04T21:45:24.061Z,9.37
2022-11-04T21:50:21.448Z,9.44
2022-11-04T21:55:15.096Z,9.60
2022-11-04T22:00:12.026Z,9.80
2022-11-04T22:05:05.966Z,9.45
2022-11-04T22:10:00.591Z,9.62
2022-11-04T22:14:53.848Z,9.45
2022-11-04T22:19:47.159Z,9.50
2022-11-04T22:24:40.453Z,9.26
2022-11-04T22:29:35.212Z,9.30
2022-11-04T22:34:28.680Z,9.26
2022-11-04T22:39:21.967Z,9.22
2022-11-04T22:44:15.481Z,9.19
2022-11-04T22:49:10.175Z,9.12
2022-11-04T22:54:08.190Z,9.08
2022-11-04T22:59:02.487Z,9.11
2022-11-04T23:03:58.906Z,9.02
2022-11-04T23:08:59.544Z,8.98
2022-11-04T23:14:20.107Z,8.95
2022-11-04T23:19:14.322Z,8.91
2022-11-04T23:24:33.106Z,9.03
2022-11-04T23:29:46.089Z,8.82
2022-11-04T23:34:59.901Z,8.85
2022-11-04T23:39:54.611Z,8.80
2022-11-04T23:45:08.203Z,8.81
2022-11-04T23:50:18.847Z,8.86
2022-11-04T23:55:30.902Z,8.80
